Flight Track Log - Related Links

Times and Time Zones

All times are in EDT time to prevent confusion due to time zone crossing. See the N1250V flight status page for this flight to view local times or setup timezone preferences in your user account.

Time Position Orientation Groundspeed Altitude Reporting Facility
EDT Latitude Longitude Course Direction KTS MPH feet Rate Location/Type
01:36PM 39.1869 -86.6303 256° West 170 196 2,400  Level Indianapolis Center
01:37PM 39.1933 -86.6919 309° West 192 221 4,700 1,659 Climbing Indianapolis Center
01:38PM 39.1900 -86.7633 267° West 194 223 5,800 1,659 Climbing Indianapolis Center
01:39PM 39.1919 -86.8414 272° West 209 241 8,100 2,226 Climbing Indianapolis Center
01:40PM 39.1889 -86.9139 267° West 209 241 10,400 1,935 Climbing Indianapolis Center
01:41PM 39.1847 -86.9794 265° West 193 222 12,100 1,561 Climbing Indianapolis Center
01:42PM 39.1435 -86.6301 256° West  Level FlightAware Approximate
01:42PM 39.1828 -87.0556 268° West 203 234 13,600  Level Indianapolis Center
01:43PM 39.1794 -87.1467 267° West 209 241 15,500 1,548 Climbing Indianapolis Center
01:44PM 39.1761 -87.2275 267° West 221 254 16,800 1,210 Climbing Indianapolis Center
01:46PM 39.1728 -87.3092 267° West 224 258 18,000 581 Climbing Indianapolis Center
01:47PM 39.1714 -87.4014 269° West 247 284 18,000  Level Indianapolis Center
01:48PM 39.1669 -87.5036 267° West 277 319 18,000  Level Indianapolis Center
01:49PM 39.1622 -87.6267 267° West 299 344 18,000  Level Indianapolis Center
01:50PM 39.1589 -87.7358 268° West 302 348 18,000  Level Indianapolis Center
01:51PM 39.1536 -87.8439 266° West 302 348 18,000  Level Indianapolis Center
01:52PM 39.1489 -87.9506 267° West 302 348 18,000  Level Indianapolis Center
01:53PM 39.1458 -88.0564 268° West 300 345 18,000  Level Indianapolis Center
01:54PM 39.1414 -88.1617 267° West 299 344 18,000  Level Indianapolis Center
01:55PM 39.1358 -88.2892 267° West 298 343 18,000  Level Indianapolis Center
01:56PM 39.1311 -88.3947 267° West 298 343 18,000  Level Indianapolis Center
01:57PM 39.1236 -88.5225 266° West 297 342 18,000  Level Kansas City Center
01:58PM 39.1192 -88.6211 267° West 296 341 18,000  Level Kansas City Center
01:59PM 39.1142 -88.7258 267° West 296 341 18,000  Level Kansas City Center
02:00PM 39.1097 -88.8306 267° West 296 341 18,000 -435 Level Kansas City Center
02:01PM 39.1031 -88.9572 266° West 296 341 17,100 -1,152 Descending Kansas City Center
02:02PM 39.0994 -89.0667 268° West 292 336 15,600 -1,426 Descending Kansas City Center
02:03PM 39.0933 -89.1672 266° West 282 325 14,200 -1,279 Descending Kansas City Center
02:04PM 39.0700 -89.2700 254° West 281 323 13,000 -1,190 Descending Kansas City Center
02:05PM 39.0494 -89.3622 254° West 275 316 11,700 -905 Descending Kansas City Center
02:06PM 39.0272 -89.4614 254° West 269 310 11,100 -344 Descending Kansas City Center
02:07PM 39.0072 -89.5506 254° West 264 304 11,000 -768 Descending Kansas City Center
02:08PM 38.9858 -89.6322 251° West 248 285 9,500 -1,776 Descending Kansas City Center
02:09PM 38.9378 -89.7111 232° Southwest 259 298 7,300 -1,210 Descending Kansas City Center
02:11PM 38.9019 -89.7717 233° Southwest 245 282 7,000 -95 Descending Kansas City Center
02:12PM 38.8561 -89.8286 224° Southwest 227 261 7,100  Climbing Kansas City Center
02:13PM 38.8047 -89.8919 224° Southwest 220 253 7,000 -919 Descending Kansas City Center
02:14PM 38.7561 -89.9461 221° Southwest 230 265 5,200 -960 Descending Kansas City Center
02:15PM 38.7094 -90.0008 222° Southwest 228 262 5,000 -732 Descending Kansas City Center
02:16PM 38.6567 -90.0369 208° Southwest 218 251 3,700 -714 Descending Kansas City Center
02:17PM 38.6422 -90.1050 255° West 199 229 3,500 -240 Descending Kansas City Center
02:18PM 38.6586 -90.1775 286° West 220 253 3,200 -639 Descending Kansas City Center
02:19PM 38.6903 -90.2433 302° West 183 211 2,200 -787 Descending Kansas City Center
02:20PM 38.7117 -90.2858 303° West 147 169 1,600 -576 Descending Kansas City Center
02:21PM 38.7300 -90.3228 302° West 129 148 1,000 -480 Descending Kansas City Center
02:22PM 38.7469 -90.3547 304° West 122 140 600 -393 Descending Kansas City Center

Login

Don't have an account? Register now (free) for customized features, flight alerts, and more!